createdAt,value
2023-02-26T00:00:22.140Z,1.48
2023-02-26T00:03:02.115Z,1.58
2023-02-26T00:05:49.131Z,1.17
2023-02-26T00:08:29.070Z,1.10
2023-02-26T00:11:11.018Z,1.20
2023-02-26T00:13:59.088Z,1.45
2023-02-26T00:16:39.880Z,1.40
2023-02-26T00:22:07.963Z,1.25
2023-02-26T00:27:36.280Z,1.13
2023-02-26T00:33:05.651Z,1.00
2023-02-26T00:35:53.065Z,2.60
2023-02-26T00:38:43.149Z,0.90
2023-02-26T00:41:23.131Z,0.85
2023-02-26T00:44:03.996Z,1.02
2023-02-26T00:50:02.061Z,0.90
2023-02-26T00:52:57.137Z,0.90
2023-02-26T00:55:45.091Z,0.70
2023-02-26T00:58:32.076Z,1.00
2023-02-26T01:01:19.080Z,0.85
2023-02-26T01:03:59.123Z,0.82
2023-02-26T01:06:53.089Z,1.30
2023-02-26T01:09:42.146Z,1.00
2023-02-26T01:12:29.075Z,1.08
2023-02-26T01:15:10.152Z,0.90
2023-02-26T01:21:01.131Z,1.10
2023-02-26T01:23:53.051Z,0.77
2023-02-26T01:26:35.127Z,0.80
2023-02-26T01:29:23.078Z,0.90
2023-02-26T01:32:32.113Z,0.95
2023-02-26T01:35:31.064Z,1.00
2023-02-26T01:38:48.074Z,0.90
2023-02-26T01:41:39.438Z,0.88
2023-02-26T01:44:36.083Z,0.90
2023-02-26T01:47:52.146Z,1.20
2023-02-26T01:50:36.077Z,0.90
2023-02-26T01:53:25.403Z,1.00
2023-02-26T01:56:16.105Z,1.00
2023-02-26T01:58:56.776Z,0.80
2023-02-26T02:01:43.067Z,0.90
2023-02-26T02:04:24.897Z,0.80
2023-02-26T02:07:15.082Z,0.82
2023-02-26T02:10:02.202Z,1.08
2023-02-26T02:12:48.075Z,1.40
2023-02-26T02:15:52.185Z,0.77
2023-02-26T02:18:53.077Z,0.82
2023-02-26T02:22:02.915Z,0.93
2023-02-26T02:24:52.076Z,1.05
2023-02-26T02:28:17.121Z,0.98
2023-02-26T02:31:16.118Z,0.70
2023-02-26T02:34:27.058Z,0.80
2023-02-26T02:37:30.082Z,0.90
2023-02-26T02:40:23.687Z,0.93
2023-02-26T02:43:18.062Z,0.80
2023-02-26T02:46:38.096Z,0.65
2023-02-26T02:49:28.194Z,1.17
2023-02-26T02:52:28.083Z,1.20
2023-02-26T02:55:33.164Z,0.90
2023-02-26T02:58:19.070Z,0.80
2023-02-26T03:01:09.075Z,0.82
2023-02-26T03:04:07.138Z,0.70
2023-02-26T03:06:56.059Z,0.80
2023-02-26T03:09:36.131Z,0.65
2023-02-26T03:12:25.080Z,0.80
2023-02-26T03:15:06.158Z,1.00
2023-02-26T03:18:06.085Z,0.95
2023-02-26T03:20:59.142Z,0.82
2023-02-26T03:24:13.081Z,0.73
2023-02-26T03:27:22.054Z,0.60
2023-02-26T03:30:30.091Z,0.60
2023-02-26T03:33:31.206Z,0.52
2023-02-26T03:36:26.485Z,0.90
2023-02-26T03:39:41.176Z,0.57
2023-02-26T03:42:45.082Z,0.80
2023-02-26T03:45:30.129Z,0.68
2023-02-26T03:48:22.095Z,0.70
2023-02-26T03:54:38.693Z,0.50
2023-02-26T03:57:45.088Z,0.57
2023-02-26T04:00:43.189Z,0.90
2023-02-26T04:04:15.183Z,0.70
2023-02-26T04:07:03.222Z,0.77
2023-02-26T04:09:43.081Z,0.57
2023-02-26T04:12:33.073Z,0.90
2023-02-26T04:15:15.268Z,0.70
2023-02-26T04:18:02.263Z,0.82
2023-02-26T04:20:42.157Z,0.70
2023-02-26T04:23:30.080Z,0.93
2023-02-26T04:28:58.074Z,0.90
2023-02-26T04:31:38.254Z,0.70
2023-02-26T04:34:25.083Z,0.70
2023-02-26T04:37:06.157Z,0.88
2023-02-26T04:39:53.086Z,0.90
2023-02-26T04:42:33.143Z,0.70
2023-02-26T04:45:20.286Z,0.70
2023-02-26T04:48:07.145Z,0.60
2023-02-26T04:50:47.072Z,0.57
2023-02-26T04:53:27.602Z,0.95
2023-02-26T04:56:14.062Z,0.80
2023-02-26T05:01:42.189Z,0.70
2023-02-26T05:04:29.110Z,0.80
2023-02-26T05:07:16.078Z,0.93
2023-02-26T05:12:43.085Z,0.80
2023-02-26T05:15:30.138Z,0.70
2023-02-26T05:18:11.082Z,0.70
2023-02-26T05:23:47.067Z,0.77
2023-02-26T05:26:34.086Z,0.65
2023-02-26T05:29:21.094Z,0.57
2023-02-26T05:32:09.179Z,0.70
2023-02-26T05:34:50.084Z,0.55
2023-02-26T05:37:37.078Z,0.50
2023-02-26T05:40:18.124Z,0.60
2023-02-26T05:45:45.136Z,1.00
2023-02-26T05:48:32.072Z,0.75
2023-02-26T05:51:19.080Z,0.70
2023-02-26T05:54:06.136Z,0.73
2023-02-26T05:56:46.062Z,0.63
2023-02-26T05:59:33.086Z,0.95
2023-02-26T06:02:20.083Z,1.10
2023-02-26T06:05:07.107Z,0.63
2023-02-26T06:07:54.073Z,0.68
2023-02-26T06:10:41.098Z,0.70
2023-02-26T06:13:21.147Z,0.73
2023-02-26T06:16:08.180Z,0.60
2023-02-26T06:18:48.148Z,0.40
2023-02-26T06:21:35.063Z,0.88
2023-02-26T06:24:22.090Z,0.63
2023-02-26T06:27:09.126Z,0.80
2023-02-26T06:29:49.065Z,0.95
2023-02-26T06:32:30.774Z,0.45
2023-02-26T06:38:04.142Z,0.93
2023-02-26T06:40:44.075Z,0.70
2023-02-26T06:43:46.089Z,0.70
2023-02-26T06:46:40.081Z,0.80
2023-02-26T06:49:27.321Z,0.90
2023-02-26T06:52:07.080Z,0.93
2023-02-26T06:54:54.071Z,0.85
2023-02-26T06:57:41.083Z,1.08
2023-02-26T07:00:22.296Z,0.77
2023-02-26T07:05:50.082Z,1.00
2023-02-26T07:11:24.091Z,0.80
2023-02-26T07:14:11.080Z,1.20
2023-02-26T07:16:51.706Z,0.80
2023-02-26T07:19:38.083Z,0.80
2023-02-26T07:22:26.094Z,0.75
2023-02-26T07:25:06.207Z,1.30
2023-02-26T07:27:53.066Z,1.13
2023-02-26T07:30:40.200Z,0.60
2023-02-26T07:33:28.489Z,0.65
2023-02-26T07:36:08.096Z,0.60
2023-02-26T07:38:48.588Z,0.73
2023-02-26T07:41:35.100Z,0.80
2023-02-26T07:44:20.606Z,0.70
2023-02-26T07:47:07.073Z,0.80
2023-02-26T07:49:47.659Z,0.80
2023-02-26T07:52:34.082Z,0.77
2023-02-26T07:55:21.074Z,0.70
2023-02-26T07:58:08.083Z,1.02
2023-02-26T08:00:55.322Z,0.60
2023-02-26T08:03:35.094Z,0.93
2023-02-26T08:06:22.183Z,1.23
2023-02-26T08:09:02.079Z,0.80
2023-02-26T08:11:43.290Z,0.80
2023-02-26T08:17:11.576Z,0.70
2023-02-26T08:19:58.074Z,0.98
2023-02-26T08:25:25.077Z,0.90
2023-02-26T08:30:52.184Z,0.88
2023-02-26T08:33:40.086Z,1.15
2023-02-26T08:36:21.883Z,1.05
2023-02-26T08:39:08.073Z,1.02
2023-02-26T08:41:55.101Z,0.80
2023-02-26T08:44:42.085Z,0.80
2023-02-26T08:47:29.355Z,0.90
2023-02-26T08:50:25.086Z,0.77
2023-02-26T08:53:06.101Z,0.70
2023-02-26T08:55:53.098Z,0.77
2023-02-26T08:58:33.581Z,1.00
2023-02-26T09:01:20.089Z,0.80
2023-02-26T09:04:00.566Z,0.75
2023-02-26T09:06:47.094Z,0.80
2023-02-26T09:09:34.086Z,0.68
2023-02-26T09:12:21.088Z,0.55
2023-02-26T09:15:01.674Z,0.68
2023-02-26T09:17:56.080Z,0.70
2023-02-26T09:20:37.233Z,0.73
2023-02-26T09:23:25.088Z,0.60
2023-02-26T09:26:05.875Z,0.70
2023-02-26T09:28:52.085Z,0.75
2023-02-26T09:31:39.231Z,0.70
2023-02-26T09:34:20.098Z,0.57
2023-02-26T09:37:00.781Z,0.55
2023-02-26T09:39:48.103Z,0.85
2023-02-26T09:43:18.560Z,0.80
2023-02-26T09:46:07.222Z,0.70
2023-02-26T09:48:56.906Z,0.60
2023-02-26T09:51:37.083Z,0.70
2023-02-26T09:54:29.979Z,0.73
2023-02-26T09:57:19.094Z,0.70
2023-02-26T10:00:08.119Z,0.80
2023-02-26T10:03:05.192Z,0.60
2023-02-26T10:06:01.286Z,0.80
2023-02-26T10:08:53.210Z,0.75
2023-02-26T10:12:01.179Z,0.70
2023-02-26T10:15:19.221Z,0.80
2023-02-26T10:18:17.177Z,0.65
2023-02-26T10:21:46.193Z,0.60
2023-02-26T10:24:49.250Z,0.55
2023-02-26T10:27:54.105Z,0.85
2023-02-26T10:33:51.105Z,0.60
2023-02-26T10:37:17.128Z,0.60
2023-02-26T10:40:06.843Z,0.52
2023-02-26T10:43:11.193Z,0.70
2023-02-26T10:46:00.254Z,0.70
2023-02-26T10:48:50.098Z,0.57
2023-02-26T10:51:35.057Z,0.80
2023-02-26T10:54:53.106Z,0.60
2023-02-26T10:57:44.177Z,0.63
2023-02-26T11:00:31.114Z,0.50
2023-02-26T11:03:21.130Z,0.47
2023-02-26T11:06:10.401Z,0.60
2023-02-26T11:08:53.159Z,0.60
2023-02-26T11:11:49.128Z,0.52
2023-02-26T11:14:38.114Z,0.50
2023-02-26T11:17:23.023Z,0.60
2023-02-26T11:20:27.129Z,0.40
2023-02-26T11:23:19.953Z,0.70
2023-02-26T11:26:12.123Z,0.38
2023-02-26T11:29:02.172Z,0.50
2023-02-26T11:31:42.310Z,0.60
2023-02-26T11:34:31.110Z,0.60
2023-02-26T11:37:11.200Z,0.50
2023-02-26T11:40:10.122Z,0.65
2023-02-26T11:43:10.127Z,0.63
2023-02-26T11:46:14.167Z,0.50
2023-02-26T11:49:05.148Z,0.80
2023-02-26T11:51:52.181Z,0.50
2023-02-26T11:54:42.115Z,0.50
2023-02-26T11:57:26.271Z,0.50
2023-02-26T12:00:31.122Z,0.50
2023-02-26T12:03:21.200Z,0.50
2023-02-26T12:06:02.185Z,0.43
2023-02-26T12:08:51.143Z,0.50
2023-02-26T12:11:51.534Z,0.50
2023-02-26T12:14:55.109Z,0.50
2023-02-26T12:17:46.986Z,0.40
2023-02-26T12:20:36.119Z,0.60
2023-02-26T12:24:01.024Z,0.70
2023-02-26T12:27:13.127Z,0.60
2023-02-26T12:30:17.134Z,0.55
2023-02-26T12:33:19.183Z,0.80
2023-02-26T12:36:48.348Z,0.47
2023-02-26T12:39:51.194Z,0.50
2023-02-26T12:42:58.136Z,0.80
2023-02-26T12:46:11.138Z,0.55
2023-02-26T12:49:17.137Z,0.60
2023-02-26T12:52:47.129Z,0.55
2023-02-26T12:55:46.192Z,0.60
2023-02-26T13:01:24.393Z,0.50
2023-02-26T13:04:48.131Z,0.40
2023-02-26T13:07:56.147Z,0.55
2023-02-26T13:10:51.788Z,0.50
2023-02-26T13:13:50.148Z,0.57
2023-02-26T13:19:57.131Z,0.65
2023-02-26T13:22:50.200Z,0.60
2023-02-26T13:25:42.148Z,0.55
2023-02-26T13:28:50.147Z,0.52
2023-02-26T13:31:42.323Z,0.60
2023-02-26T13:34:52.144Z,0.43
2023-02-26T13:37:46.205Z,0.50
2023-02-26T13:40:47.171Z,0.50
2023-02-26T13:44:04.148Z,0.55
2023-02-26T13:47:17.264Z,0.40
2023-02-26T13:50:28.154Z,0.43
2023-02-26T13:53:41.175Z,0.47
2023-02-26T13:56:53.515Z,0.50
2023-02-26T13:59:53.145Z,0.50
2023-02-26T14:03:01.219Z,0.68
2023-02-26T14:05:54.155Z,0.43
2023-02-26T14:08:58.153Z,0.40
2023-02-26T14:11:51.218Z,0.52
2023-02-26T14:14:55.143Z,0.50
2023-02-26T14:17:42.232Z,0.30
2023-02-26T14:20:46.137Z,0.45
2023-02-26T14:23:36.645Z,0.60
2023-02-26T14:26:30.143Z,0.60
2023-02-26T14:29:42.743Z,0.45
2023-02-26T14:33:00.156Z,0.40
2023-02-26T14:35:42.878Z,0.30
2023-02-26T14:38:40.158Z,0.40
2023-02-26T14:41:32.658Z,0.30
2023-02-26T14:44:22.138Z,0.50
2023-02-26T14:47:17.155Z,0.28
2023-02-26T14:50:07.151Z,0.30
2023-02-26T14:53:29.150Z,0.50
2023-02-26T14:56:41.192Z,0.40
2023-02-26T14:59:51.160Z,0.55
2023-02-26T15:02:50.239Z,0.32
2023-02-26T15:08:59.052Z,0.63
2023-02-26T15:11:55.157Z,0.40
2023-02-26T15:15:19.153Z,0.50
2023-02-26T15:18:17.293Z,0.30
2023-02-26T15:21:19.222Z,0.57
2023-02-26T15:24:02.237Z,0.40
2023-02-26T15:27:14.170Z,0.50
2023-02-26T15:29:57.212Z,0.57
2023-02-26T15:32:45.223Z,0.40
2023-02-26T15:35:27.791Z,0.40
2023-02-26T15:38:17.161Z,0.30
2023-02-26T15:41:00.206Z,0.50
2023-02-26T15:43:53.182Z,0.60
2023-02-26T15:49:41.151Z,0.65
2023-02-26T15:52:35.154Z,0.50
2023-02-26T15:55:25.151Z,0.45
2023-02-26T15:58:13.712Z,0.57
2023-02-26T16:00:55.138Z,0.40
2023-02-26T16:03:46.287Z,0.85
2023-02-26T16:06:40.986Z,0.40
2023-02-26T16:09:47.465Z,0.43
2023-02-26T16:12:50.358Z,0.57
2023-02-26T16:15:44.618Z,0.70
2023-02-26T16:18:33.173Z,0.45
2023-02-26T16:21:15.210Z,0.50
2023-02-26T16:24:04.265Z,0.65
2023-02-26T16:26:49.206Z,0.50
2023-02-26T16:29:39.186Z,0.30
2023-02-26T16:32:27.273Z,0.73
2023-02-26T16:35:23.173Z,0.85
2023-02-26T16:38:03.310Z,0.52
2023-02-26T16:40:52.496Z,0.40
2023-02-26T16:44:00.186Z,0.60
2023-02-26T16:46:57.191Z,0.60
2023-02-26T16:49:47.173Z,0.85
2023-02-26T16:52:30.229Z,0.73
2023-02-26T16:55:25.170Z,0.60
2023-02-26T16:58:14.156Z,0.82
2023-02-26T17:01:08.196Z,0.75
2023-02-26T17:03:50.578Z,0.70
2023-02-26T17:06:43.194Z,0.90
2023-02-26T17:12:35.162Z,1.00
2023-02-26T17:15:38.222Z,0.80
2023-02-26T17:18:25.170Z,0.77
2023-02-26T17:21:09.506Z,0.73
2023-02-26T17:23:56.215Z,0.80
2023-02-26T17:26:43.146Z,0.68
2023-02-26T17:32:31.286Z,0.68
2023-02-26T17:35:13.170Z,0.88
2023-02-26T17:38:00.149Z,1.00
2023-02-26T17:40:42.282Z,0.70
2023-02-26T17:43:30.168Z,0.68
2023-02-26T17:46:10.300Z,0.60
2023-02-26T17:48:57.167Z,0.90
2023-02-26T17:51:44.158Z,0.60
2023-02-26T17:54:31.188Z,0.65
2023-02-26T17:59:59.173Z,0.60
2023-02-26T18:02:55.167Z,1.10
2023-02-26T18:08:36.167Z,0.90
2023-02-26T18:11:26.134Z,1.15
2023-02-26T18:14:07.177Z,0.93
2023-02-26T18:16:54.223Z,0.80
2023-02-26T18:22:22.184Z,0.80
2023-02-26T18:25:03.308Z,0.80
2023-02-26T18:27:51.181Z,0.88
2023-02-26T18:30:40.312Z,0.95
2023-02-26T18:33:28.183Z,1.08
2023-02-26T18:36:08.233Z,0.98
2023-02-26T18:38:55.177Z,1.10
2023-02-26T18:44:23.174Z,1.30
2023-02-26T18:49:51.863Z,1.00
2023-02-26T18:52:38.178Z,1.30
2023-02-26T18:58:05.155Z,1.15
2023-02-26T19:00:52.194Z,1.10
2023-02-26T19:06:19.176Z,1.10
2023-02-26T19:09:02.637Z,1.30
2023-02-26T19:11:49.189Z,1.30
2023-02-26T19:14:30.271Z,1.00
2023-02-26T19:19:57.239Z,1.35
2023-02-26T19:22:44.356Z,1.40
2023-02-26T19:25:33.190Z,1.55
2023-02-26T19:28:20.198Z,1.40
2023-02-26T19:31:01.322Z,1.48
2023-02-26T19:36:33.170Z,1.67
2023-02-26T19:39:21.185Z,1.58
2023-02-26T19:42:02.287Z,1.83
2023-02-26T19:47:36.194Z,1.70
2023-02-26T19:50:25.163Z,1.90
2023-02-26T19:53:12.252Z,1.70
2023-02-26T19:55:59.172Z,1.70
2023-02-26T19:58:47.188Z,1.70
2023-02-26T20:01:28.238Z,2.00
2023-02-26T20:06:55.674Z,2.28
2023-02-26T20:09:42.166Z,2.33
2023-02-26T20:12:29.188Z,2.00
2023-02-26T20:15:09.296Z,2.10
2023-02-26T20:17:56.192Z,2.25
2023-02-26T20:20:36.235Z,2.35
2023-02-26T20:23:23.193Z,2.40
2023-02-26T20:26:04.275Z,2.30
2023-02-26T20:31:31.587Z,2.35
2023-02-26T20:34:19.237Z,2.15
2023-02-26T20:36:59.437Z,2.13
2023-02-26T20:39:46.177Z,2.50
2023-02-26T20:42:26.235Z,2.40
2023-02-26T20:45:14.214Z,2.25
2023-02-26T20:47:54.238Z,2.53
2023-02-26T20:50:42.180Z,3.08
2023-02-26T20:53:22.326Z,2.35
2023-02-26T20:56:09.208Z,2.30
2023-02-26T20:58:50.084Z,2.10
2023-02-26T21:04:22.230Z,2.45
2023-02-26T21:07:20.171Z,2.35
2023-02-26T21:10:07.194Z,2.10
2023-02-26T21:12:47.759Z,2.00
2023-02-26T21:15:34.224Z,2.13
2023-02-26T21:18:22.188Z,1.98
2023-02-26T21:21:02.233Z,2.30
2023-02-26T21:23:49.186Z,2.40
2023-02-26T21:26:30.242Z,2.45
2023-02-26T21:31:58.661Z,1.90
2023-02-26T21:37:25.845Z,2.30
2023-02-26T21:40:13.174Z,1.85
2023-02-26T21:42:53.269Z,2.22
2023-02-26T21:45:42.205Z,2.00
2023-02-26T21:48:29.264Z,2.13
2023-02-26T21:51:09.189Z,2.20
2023-02-26T21:53:49.755Z,2.08
2023-02-26T21:56:36.190Z,1.90
2023-02-26T21:59:23.377Z,2.20
2023-02-26T22:02:03.240Z,1.92
2023-02-26T22:04:51.250Z,1.80
2023-02-26T22:07:31.347Z,1.85
2023-02-26T22:10:12.296Z,2.10
2023-02-26T22:15:39.921Z,1.80
2023-02-26T22:18:26.169Z,1.90
2023-02-26T22:21:07.148Z,2.08
2023-02-26T22:26:42.686Z,2.00
2023-02-26T22:29:22.183Z,1.90
2023-02-26T22:32:09.256Z,1.80
2023-02-26T22:34:50.191Z,1.80
2023-02-26T22:40:19.201Z,1.85
2023-02-26T22:42:59.760Z,2.00
2023-02-26T22:45:46.198Z,1.83
2023-02-26T22:48:40.180Z,1.77
2023-02-26T22:51:28.649Z,1.90
2023-02-26T22:54:08.250Z,1.60
2023-02-26T22:56:55.187Z,1.73
2023-02-26T22:59:35.270Z,1.95
2023-02-26T23:02:22.189Z,2.22
2023-02-26T23:05:02.256Z,1.90
2023-02-26T23:07:50.221Z,1.70
2023-02-26T23:10:37.190Z,2.40
2023-02-26T23:13:24.211Z,2.05
2023-02-26T23:16:12.246Z,2.28
2023-02-26T23:18:52.670Z,2.80
2023-02-26T23:21:39.191Z,2.50
2023-02-26T23:24:26.188Z,2.85
2023-02-26T23:27:13.195Z,2.50
2023-02-26T23:30:00.205Z,2.42
2023-02-26T23:32:40.438Z,2.30
2023-02-26T23:35:27.187Z,2.17
2023-02-26T23:38:07.245Z,2.50
2023-02-26T23:40:55.183Z,2.47
2023-02-26T23:43:35.297Z,2.30
2023-02-26T23:46:22.265Z,2.13
2023-02-26T23:49:09.561Z,2.67
2023-02-26T23:51:50.222Z,1.95
2023-02-26T23:57:19.172Z,2.20
2023-02-26T23:59:59.705Z,2.35
